Terminal Aerodrome Forecast
Issued by NWS Wichita, KS

Home | Current Version | Previous Version | Graphics & Text | Print | Product List | Glossary On
Versions: 1 2 3 4 5 6 7 8 9 10 11 12 13 14 15 16 17 18 19 20 21 22 23 24 25 26
000
FTUS43 KICT 251139
TAFICT
TAF
KICT 251139Z 2512/2612 13010KT P6SM SCT025 OVC035
      TEMPO 2512/2515 BKN015
     FM251500 18012G20KT P6SM BKN050
     FM251900 19012G20KT P6SM VCTS BKN050CB
     FM260300 17010KT P6SM BKN015=

USA.gov is the U.S. government's official web portal to all federal, state and local government web resources and services.